createdAt,value
2022-11-15T00:02:08.507Z,6.8
2022-11-15T00:05:10.354Z,7
2022-11-15T00:08:12.308Z,7.3
2022-11-15T00:11:14.260Z,7.7
2022-11-15T00:14:16.247Z,8.2
2022-11-15T00:17:18.259Z,8.7
2022-11-15T00:20:20.262Z,8.6
2022-11-15T00:23:22.202Z,8.3
2022-11-15T00:26:24.161Z,8.2
2022-11-15T00:29:26.179Z,9.3
2022-11-15T00:32:28.137Z,9.6
2022-11-15T00:35:30.122Z,9.2
2022-11-15T00:38:32.083Z,9.2
2022-11-15T00:41:34.023Z,9.4
2022-11-15T00:44:36.002Z,10
2022-11-15T00:47:37.967Z,8.2
2022-11-15T00:50:39.933Z,8.9
2022-11-15T00:53:41.883Z,7.6
2022-11-15T00:56:43.852Z,10.1
2022-11-15T00:59:45.848Z,9.6
2022-11-15T01:02:47.802Z,8.4
2022-11-15T01:05:49.787Z,8
2022-11-15T01:08:51.714Z,8.3
2022-11-15T01:11:53.770Z,7.4
2022-11-15T01:14:55.751Z,8.4
2022-11-15T01:17:57.702Z,7.5
2022-11-15T01:20:59.668Z,9.4
2022-11-15T01:24:01.648Z,7.8
2022-11-15T01:27:03.575Z,7.9
2022-11-15T01:30:05.532Z,8.1
2022-11-15T01:33:07.557Z,8
2022-11-15T01:36:09.545Z,7.2
2022-11-15T01:39:11.507Z,7.6
2022-11-15T01:42:13.496Z,8.5
2022-11-15T01:45:15.438Z,9.2
2022-11-15T01:48:17.395Z,8.5
2022-11-15T01:51:19.357Z,7.1
2022-11-15T01:54:21.332Z,7.3
2022-11-15T01:57:23.288Z,6.9
2022-11-15T02:00:25.292Z,8.6
2022-11-15T02:03:27.241Z,9.1
2022-11-15T02:06:29.233Z,8.3
2022-11-15T02:09:31.203Z,7.6
2022-11-15T02:12:33.147Z,9
2022-11-15T02:15:35.122Z,8
2022-11-15T02:18:37.071Z,8.1
2022-11-15T02:21:39.084Z,6.9
2022-11-15T02:24:41.056Z,8.1
2022-11-15T02:27:43.013Z,6.7
2022-11-15T02:30:44.981Z,6.9
2022-11-15T02:33:46.967Z,7
2022-11-15T02:36:48.889Z,6.2
2022-11-15T02:39:50.852Z,7.1
2022-11-15T02:42:52.822Z,7.2
2022-11-15T02:45:54.791Z,7
2022-11-15T02:48:56.755Z,7.2
2022-11-15T02:51:58.720Z,7.8
2022-11-15T02:55:00.676Z,6.4
2022-11-15T02:58:02.653Z,6.5
2022-11-15T03:01:04.683Z,7.4
2022-11-15T03:04:06.583Z,6
2022-11-15T03:07:08.542Z,5.8
2022-11-15T03:10:10.473Z,6.5
2022-11-15T03:13:12.467Z,5.9
2022-11-15T03:16:14.422Z,5.9
2022-11-15T03:19:16.387Z,6.4
2022-11-15T03:22:18.340Z,6.2
2022-11-15T03:25:20.313Z,6.4
2022-11-15T03:28:22.290Z,6.4
2022-11-15T03:31:24.238Z,6.3
2022-11-15T03:34:26.199Z,7.1
2022-11-15T03:37:28.167Z,5.6
2022-11-15T03:40:30.114Z,5.7
2022-11-15T03:43:32.301Z,6.5
2022-11-15T03:46:34.048Z,6.1
2022-11-15T03:49:35.998Z,6.2
2022-11-15T03:52:37.962Z,6.4
2022-11-15T03:55:39.925Z,5.9
2022-11-15T03:58:41.882Z,6
2022-11-15T04:01:43.853Z,6
2022-11-15T04:04:45.814Z,6.5
2022-11-15T04:07:47.794Z,5.9
2022-11-15T04:10:49.789Z,6.5
2022-11-15T04:13:51.704Z,6.2
2022-11-15T04:16:53.667Z,7
2022-11-15T04:19:55.634Z,6.9
2022-11-15T04:22:57.586Z,6.5
2022-11-15T04:25:59.553Z,6.5
2022-11-15T04:29:01.508Z,7
2022-11-15T04:32:03.471Z,6.8
2022-11-15T04:35:05.441Z,7.1
2022-11-15T04:38:07.418Z,6.4
2022-11-15T04:41:09.368Z,6.1
2022-11-15T04:44:11.342Z,6.1
2022-11-15T04:47:13.307Z,6.2
2022-11-15T04:50:15.274Z,6
2022-11-15T04:53:17.232Z,5.8
2022-11-15T04:56:19.184Z,6.1
2022-11-15T04:59:21.149Z,5.4
2022-11-15T05:02:23.130Z,6.1
2022-11-15T05:05:25.080Z,6.4
2022-11-15T05:08:27.044Z,5.9
2022-11-15T05:11:29.034Z,5.5
2022-11-15T05:14:30.982Z,6.1
2022-11-15T05:17:32.931Z,5.7
2022-11-15T05:20:34.933Z,5.2
2022-11-15T05:23:36.881Z,5.7
2022-11-15T05:26:38.850Z,5.4
2022-11-15T05:29:40.815Z,5.3
2022-11-15T05:32:42.770Z,5.5
2022-11-15T05:35:44.743Z,4.8
2022-11-15T05:38:46.699Z,4.8
2022-11-15T05:41:48.669Z,5.4
2022-11-15T05:44:50.845Z,5.6
2022-11-15T05:47:52.625Z,5.3
2022-11-15T05:50:54.609Z,5
2022-11-15T05:53:56.573Z,5.6
2022-11-15T05:56:58.511Z,5
2022-11-15T06:00:00.477Z,5.4
2022-11-15T06:03:02.436Z,4.7
2022-11-15T06:06:04.398Z,4.9
2022-11-15T06:09:06.355Z,4.7
2022-11-15T06:12:08.323Z,4.4
2022-11-15T06:15:10.280Z,4.3
2022-11-15T06:18:12.249Z,4.6
2022-11-15T06:21:14.224Z,4.2
2022-11-15T06:24:16.166Z,4.6
2022-11-15T06:27:18.138Z,4.6
2022-11-15T06:30:20.105Z,4.3
2022-11-15T06:33:22.142Z,4
2022-11-15T06:36:24.040Z,4.2
2022-11-15T06:39:26.004Z,4.5
2022-11-15T06:42:27.958Z,5
2022-11-15T06:45:29.909Z,3.8
2022-11-15T06:48:31.860Z,4.1
2022-11-15T06:51:33.868Z,4.8
2022-11-15T06:54:35.806Z,5.9
2022-11-15T06:57:40.859Z,5.1
2022-11-15T07:00:42.826Z,6.5
2022-11-15T07:03:44.780Z,6.4
2022-11-15T07:06:46.841Z,6.1
2022-11-15T07:09:48.769Z,5
2022-11-15T07:12:50.928Z,5.8
2022-11-15T07:15:52.691Z,5.4
2022-11-15T07:18:54.640Z,5.9
2022-11-15T07:21:56.611Z,5.3
2022-11-15T07:24:58.562Z,5.6
2022-11-15T07:28:00.529Z,5.4
2022-11-15T07:31:02.499Z,5
2022-11-15T07:34:04.463Z,6.1
2022-11-15T07:37:06.458Z,5.1
2022-11-15T07:40:08.385Z,4.8
2022-11-15T07:43:10.344Z,7
2022-11-15T07:46:12.304Z,5.5
2022-11-15T07:49:14.259Z,5.6
2022-11-15T07:52:19.102Z,6.3
2022-11-15T07:55:21.045Z,6.1
2022-11-15T07:58:23.009Z,6.5
2022-11-15T08:01:25.086Z,5.7
2022-11-15T08:04:26.931Z,6.5
2022-11-15T08:07:28.994Z,6.2
2022-11-15T08:10:30.871Z,5.1
2022-11-15T08:13:33.071Z,5.1
2022-11-15T08:16:34.785Z,5.3
2022-11-15T08:19:36.782Z,5.6
2022-11-15T08:22:38.748Z,5.1
2022-11-15T08:25:40.680Z,4.9
2022-11-15T08:28:42.646Z,5.2
2022-11-15T08:31:44.610Z,4.7
2022-11-15T08:34:46.562Z,4.5
2022-11-15T08:37:48.533Z,4.5
2022-11-15T08:40:50.484Z,5
2022-11-15T08:43:52.453Z,4.4
2022-11-15T08:46:54.423Z,5.6
2022-11-15T08:49:56.376Z,5.2
2022-11-15T08:52:58.347Z,5
2022-11-15T08:56:00.292Z,5.2
2022-11-15T08:59:02.261Z,5.4
2022-11-15T09:02:04.252Z,4.8
2022-11-15T09:05:06.196Z,4.6
2022-11-15T09:08:25.440Z,4.7
2022-11-15T09:11:10.128Z,4.9
2022-11-15T09:14:12.145Z,4.2
2022-11-15T09:17:14.127Z,4.7
2022-11-15T09:20:16.086Z,4.7
2022-11-15T09:23:18.045Z,4.1
2022-11-15T09:26:19.998Z,5
2022-11-15T09:29:21.963Z,5.8
2022-11-15T09:32:23.936Z,4.6
2022-11-15T09:35:25.958Z,5.8
2022-11-15T09:38:27.887Z,5.9
2022-11-15T09:41:29.807Z,4.7
2022-11-15T09:44:31.777Z,4.9
2022-11-15T09:47:33.750Z,4.7
2022-11-15T09:50:35.741Z,4
2022-11-15T09:54:13.915Z,4
2022-11-15T09:56:39.672Z,4.4
2022-11-15T09:59:41.621Z,4.2
2022-11-15T10:02:43.580Z,4
2022-11-15T10:05:45.527Z,3.7
2022-11-15T10:08:47.511Z,3.9
2022-11-15T10:11:49.457Z,4.1
2022-11-15T10:14:54.305Z,3.7
2022-11-15T10:17:53.393Z,4.4
2022-11-15T10:20:55.338Z,3.8
2022-11-15T10:23:57.321Z,4.8
2022-11-15T10:26:59.282Z,4.7
2022-11-15T10:30:01.250Z,4.6
2022-11-15T10:33:03.207Z,3.8
2022-11-15T10:36:05.180Z,3.7
2022-11-15T10:39:07.217Z,4
2022-11-15T10:42:11.906Z,6.7
2022-11-15T10:45:11.084Z,5.3
2022-11-15T10:48:13.023Z,4.5
2022-11-15T10:51:15.004Z,4.7
2022-11-15T10:54:20.019Z,3.7
2022-11-15T10:57:18.977Z,3.7
2022-11-15T11:00:21.076Z,3.9
2022-11-15T11:03:22.984Z,4
2022-11-15T11:06:24.935Z,3.6
2022-11-15T11:09:26.935Z,3.5
2022-11-15T11:12:28.870Z,4
2022-11-15T11:15:30.848Z,3.5
2022-11-15T11:18:33.089Z,4.7
2022-11-15T11:21:39.720Z,3.9
2022-11-15T11:24:36.785Z,3.9
2022-11-15T11:27:38.685Z,3.5
2022-11-15T11:30:40.651Z,3.8
2022-11-15T11:33:42.615Z,3.4
2022-11-15T11:36:44.562Z,3.5
2022-11-15T11:39:46.520Z,3.4
2022-11-15T11:42:48.481Z,3
2022-11-15T11:45:50.437Z,3.9
2022-11-15T11:48:52.400Z,3.1
2022-11-15T11:51:54.362Z,3.3
2022-11-15T11:54:56.341Z,3.1
2022-11-15T11:57:58.310Z,3
2022-11-15T12:01:00.267Z,2.8
2022-11-15T12:04:02.215Z,4.8
2022-11-15T12:07:04.207Z,3.9
2022-11-15T12:10:06.186Z,3
2022-11-15T12:13:08.144Z,3
2022-11-15T12:16:10.623Z,3.1
2022-11-15T12:19:12.081Z,3.1
2022-11-15T12:22:14.035Z,3.2
2022-11-15T12:25:15.990Z,3.1
2022-11-15T12:28:17.963Z,3.4
2022-11-15T12:31:19.918Z,2.8
2022-11-15T12:34:21.894Z,3.2
2022-11-15T12:37:23.827Z,2.8
2022-11-15T12:40:25.800Z,2.4
2022-11-15T12:43:27.780Z,2.6
2022-11-15T12:46:29.738Z,2
2022-11-15T12:49:31.696Z,2.3
2022-11-15T12:52:33.648Z,2.4
2022-11-15T12:55:35.631Z,2.6
2022-11-15T12:58:37.566Z,2.5
2022-11-15T13:01:39.557Z,2.5
2022-11-15T13:04:41.483Z,2.5
2022-11-15T13:07:43.452Z,2.7
2022-11-15T13:10:45.404Z,2.7
2022-11-15T13:13:47.360Z,2.3
2022-11-15T13:16:49.321Z,2.7
2022-11-15T13:19:51.379Z,2.6
2022-11-15T13:22:53.278Z,2.7
2022-11-15T13:25:55.233Z,2.2
2022-11-15T13:28:57.186Z,2.5
2022-11-15T13:31:59.159Z,2.4
2022-11-15T13:35:01.141Z,1.8
2022-11-15T13:38:03.087Z,1.7
2022-11-15T13:41:05.048Z,2.5
2022-11-15T13:44:07.004Z,2.9
2022-11-15T13:47:08.969Z,2.9
2022-11-15T13:50:12.360Z,2.6
2022-11-15T13:53:12.905Z,3.9
2022-11-15T13:56:14.865Z,2.9
2022-11-15T13:59:16.839Z,2.8
2022-11-15T14:02:19.034Z,2.1
2022-11-15T14:05:20.751Z,2.2
2022-11-15T14:08:22.766Z,2.2
2022-11-15T14:11:24.713Z,1.8
2022-11-15T14:14:26.684Z,1.4
2022-11-15T14:17:28.815Z,1.6
2022-11-15T14:20:30.714Z,1.4
2022-11-15T14:23:32.681Z,1.4
2022-11-15T14:26:34.666Z,1.7
2022-11-15T14:29:36.640Z,1.3
2022-11-15T14:32:38.581Z,1.6
2022-11-15T14:35:40.551Z,1.3
2022-11-15T14:38:42.540Z,1.3
2022-11-15T14:41:44.520Z,1.2
2022-11-15T14:44:46.529Z,1.2
2022-11-15T14:47:48.425Z,1.6
2022-11-15T14:50:50.395Z,1.1
2022-11-15T14:53:52.346Z,1.4
2022-11-15T14:56:54.338Z,1.3
2022-11-15T14:59:56.332Z,1.3
2022-11-15T15:02:58.269Z,1.1
2022-11-15T15:06:00.227Z,1
2022-11-15T15:09:02.182Z,1.1
2022-11-15T15:12:06.412Z,1.1
2022-11-15T15:15:06.139Z,1.6
2022-11-15T15:18:08.072Z,1.4
2022-11-15T15:21:10.041Z,2.2
2022-11-15T15:24:12.010Z,2.1
2022-11-15T15:27:14.028Z,2
2022-11-15T15:30:15.947Z,2.1
2022-11-15T15:33:17.907Z,1.9
2022-11-15T15:36:19.868Z,2.1
2022-11-15T15:39:21.833Z,2.4
2022-11-15T15:42:23.797Z,2.2
2022-11-15T15:45:25.777Z,2.7
2022-11-15T15:48:27.733Z,2.5
2022-11-15T15:51:29.714Z,2.5
2022-11-15T15:54:31.673Z,3.4
2022-11-15T15:57:33.635Z,2.7
2022-11-15T16:00:35.592Z,2.6
2022-11-15T16:03:37.593Z,2.4
2022-11-15T16:06:39.526Z,2.2
2022-11-15T16:09:41.475Z,2.3
2022-11-15T16:12:43.436Z,3.3
2022-11-15T16:15:45.414Z,2.6
2022-11-15T16:18:47.361Z,3.1
2022-11-15T16:21:49.322Z,3.3
2022-11-15T16:24:51.474Z,2.1
2022-11-15T16:27:53.271Z,2.8
2022-11-15T16:30:56.733Z,3
2022-11-15T16:33:57.313Z,2.4
2022-11-15T16:36:59.270Z,2.6
2022-11-15T16:40:01.528Z,2.7
2022-11-15T16:43:03.196Z,2.7
2022-11-15T16:46:05.158Z,2.8
2022-11-15T16:49:07.126Z,2.4
2022-11-15T16:52:09.090Z,2.6
2022-11-15T16:55:11.108Z,3.1
2022-11-15T16:58:13.069Z,2.6
2022-11-15T17:01:15.105Z,2.9
2022-11-15T17:04:16.999Z,2.4
2022-11-15T17:07:19.044Z,2.5
2022-11-15T17:10:21.008Z,2.6
2022-11-15T17:13:22.911Z,2.5
2022-11-15T17:16:24.881Z,2.9
2022-11-15T17:19:26.838Z,2.7
2022-11-15T17:22:28.812Z,2.7
2022-11-15T17:25:30.790Z,3.1
2022-11-15T17:28:32.926Z,2.6
2022-11-15T17:31:34.706Z,2.9
2022-11-15T17:34:46.944Z,2.5
2022-11-15T17:37:38.917Z,3.1
2022-11-15T17:40:40.868Z,3.2
2022-11-15T17:43:42.846Z,2.9
2022-11-15T17:46:44.786Z,3.1
2022-11-15T17:49:46.759Z,3.4
2022-11-15T17:52:48.704Z,3.2
2022-11-15T17:55:50.652Z,3.5
2022-11-15T17:58:52.615Z,3.5
2022-11-15T18:01:54.600Z,3.1
2022-11-15T18:04:56.570Z,3.4
2022-11-15T18:07:58.519Z,3.3
2022-11-15T18:11:00.497Z,3.8
2022-11-15T18:14:02.471Z,3.1
2022-11-15T18:17:04.424Z,3
2022-11-15T18:20:06.411Z,3.6
2022-11-15T18:23:08.352Z,3.7
2022-11-15T18:26:10.318Z,4.1
2022-11-15T18:29:12.280Z,3.3
2022-11-15T18:32:14.275Z,3.6
2022-11-15T18:35:16.220Z,3.8
2022-11-15T18:38:18.213Z,3.4
2022-11-15T18:41:20.161Z,3.2
2022-11-15T18:44:22.152Z,2.9
2022-11-15T18:47:24.098Z,3.6
2022-11-15T18:50:26.062Z,2.9
2022-11-15T18:53:28.608Z,3
2022-11-15T18:56:30.565Z,2.8
2022-11-15T18:59:32.520Z,2.8
2022-11-15T19:02:37.231Z,3.3
2022-11-15T19:05:39.193Z,3
2022-11-15T19:08:41.146Z,3.4
2022-11-15T19:11:43.140Z,4
2022-11-15T19:14:45.126Z,3.1
2022-11-15T19:17:47.115Z,3.2
2022-11-15T19:20:49.042Z,3.3
2022-11-15T19:23:51.013Z,3
2022-11-15T19:26:52.969Z,3.3
2022-11-15T19:29:54.943Z,3.4
2022-11-15T19:32:56.895Z,3.4
2022-11-15T19:35:58.858Z,3.1
2022-11-15T19:39:00.818Z,3.9
2022-11-15T19:42:02.786Z,3.4
2022-11-15T19:45:04.756Z,4.2
2022-11-15T19:48:06.722Z,3.1
2022-11-15T19:51:08.672Z,3.5
2022-11-15T19:54:10.875Z,4
2022-11-15T19:57:12.601Z,3.7
2022-11-15T20:00:14.576Z,3.2
2022-11-15T20:03:16.528Z,3.7
2022-11-15T20:06:18.472Z,3.3
2022-11-15T20:09:20.436Z,3.8
2022-11-15T20:12:22.391Z,3.8
2022-11-15T20:15:24.367Z,3.5
2022-11-15T20:18:26.329Z,4.1
2022-11-15T20:21:28.298Z,4.3
2022-11-15T20:24:30.256Z,3.7
2022-11-15T20:27:32.223Z,4
2022-11-15T20:30:34.196Z,4.3
2022-11-15T20:33:36.175Z,3.6
2022-11-15T20:36:38.135Z,4.1
2022-11-15T20:39:40.102Z,3.9
2022-11-15T20:42:42.071Z,4.1
2022-11-15T20:45:44.029Z,4.5
2022-11-15T20:48:45.986Z,4.3
2022-11-15T20:51:47.940Z,3.6
2022-11-15T20:54:50.093Z,4
2022-11-15T20:57:51.896Z,3.9
2022-11-15T21:00:53.884Z,4.1
2022-11-15T21:03:55.792Z,3.7
2022-11-15T21:06:57.811Z,4
2022-11-15T21:09:59.702Z,3.4
2022-11-15T21:13:01.697Z,4.2
2022-11-15T21:16:03.618Z,3.3
2022-11-15T21:19:05.588Z,3.9
2022-11-15T21:22:07.540Z,4.2
2022-11-15T21:25:09.507Z,4.4
2022-11-15T21:28:11.481Z,4.3
2022-11-15T21:31:13.460Z,4.6
2022-11-15T21:34:15.398Z,4.7
2022-11-15T21:37:17.370Z,4
2022-11-15T21:40:19.329Z,4.9
2022-11-15T21:43:21.307Z,4.5
2022-11-15T21:46:23.254Z,4.6
2022-11-15T21:49:25.213Z,4.8
2022-11-15T21:52:27.186Z,4.6
2022-11-15T21:55:29.146Z,4.3
2022-11-15T21:58:31.491Z,4.3
2022-11-15T22:01:33.117Z,5
2022-11-15T22:04:35.178Z,4.6
2022-11-15T22:07:37.141Z,4.4
2022-11-15T22:10:38.969Z,5
2022-11-15T22:13:40.921Z,4.1
2022-11-15T22:16:42.915Z,4.5
2022-11-15T22:19:52.449Z,4.2
2022-11-15T22:22:46.831Z,4.2
2022-11-15T22:25:48.803Z,4.1
2022-11-15T22:28:50.766Z,3.8
2022-11-15T22:31:52.693Z,4.9
2022-11-15T22:34:54.658Z,3.8
2022-11-15T22:37:56.626Z,3.7
2022-11-15T22:40:58.574Z,3.7
2022-11-15T22:44:00.544Z,3.5
2022-11-15T22:47:02.500Z,3.9
2022-11-15T22:50:04.461Z,4.2
2022-11-15T22:53:06.433Z,4.1
2022-11-15T22:56:08.400Z,4.3
2022-11-15T22:59:10.359Z,3.6
2022-11-15T23:02:12.330Z,4.3
2022-11-15T23:05:14.295Z,4
2022-11-15T23:08:16.257Z,4.2
2022-11-15T23:11:18.223Z,4
2022-11-15T23:14:20.179Z,3.6
2022-11-15T23:17:22.161Z,4.2
2022-11-15T23:20:42.294Z,4.4
2022-11-15T23:23:26.070Z,3.8
2022-11-15T23:26:28.046Z,4.8
2022-11-15T23:29:30.005Z,3.8
2022-11-15T23:32:31.955Z,3.9
2022-11-15T23:35:33.909Z,3.9
2022-11-15T23:38:36.035Z,3.9
2022-11-15T23:41:37.830Z,3.8
2022-11-15T23:44:39.781Z,4.5
2022-11-15T23:47:41.761Z,4.2
2022-11-15T23:50:43.716Z,4
2022-11-15T23:53:45.671Z,4.5
2022-11-15T23:56:47.639Z,4.8
2022-11-15T23:59:49.622Z,4.2
